Time;durP1;ratioP1;P1;durP2;ratioP2;P2;SDS_P1;SDS_P2;PMS_P1;PMS_P2;Temp;Humidity;BMP_temperature;BMP_pressure;BME280_temperature;BME280_humidity;BME280_pressure;Samples;Min_cycle;Max_cycle;Signal;HPM_P1;HPM_P2
2021/10/03 00:00:36;;;;;;;5.97;3.30;;;;;;;17.39;61.64;97875.13;5033500;28;20759;-72
2021/10/03 00:03:04;;;;;;;11.05;2.53;;;;;;;17.40;60.98;97863.94;5026423;28;20079;-72
2021/10/03 00:05:30;;;;;;;4.07;2.53;;;;;;;17.36;60.61;97853.81;5033402;28;20475;-71
2021/10/03 00:07:58;;;;;;;5.13;2.55;;;;;;;17.40;60.21;97830.31;5032657;28;20048;-71
2021/10/03 00:10:28;;;;;;;4.50;2.90;;;;;;;17.44;60.13;97867.75;5026957;28;20058;-72
2021/10/03 00:12:53;;;;;;;8.40;2.60;;;;;;;17.48;59.88;97862.59;5032178;28;20108;-71
2021/10/03 00:15:21;;;;;;;4.88;2.58;;;;;;;17.47;59.67;97861.75;5029310;28;20229;-72
2021/10/03 00:17:48;;;;;;;4.72;2.35;;;;;;;17.50;59.55;97853.03;5013575;28;20080;-71
2021/10/03 00:20:16;;;;;;;3.25;2.25;;;;;;;17.56;59.54;97853.84;5022391;28;20032;-71
2021/10/03 00:22:42;;;;;;;3.90;2.40;;;;;;;17.50;59.57;97861.22;5030514;28;20033;-72
2021/10/03 00:25:10;;;;;;;5.07;2.53;;;;;;;17.58;58.52;97859.03;5031941;28;20029;-72
2021/10/03 00:27:35;;;;;;;3.25;2.08;;;;;;;17.65;58.08;97856.84;5032727;28;20021;-70
2021/10/03 00:30:02;;;;;;;4.28;2.47;;;;;;;17.67;57.51;97844.53;5030906;28;20372;-71
2021/10/03 00:32:28;;;;;;;3.63;2.25;;;;;;;17.72;58.06;97860.97;5032627;28;20453;-71
2021/10/03 00:34:54;;;;;;;4.65;2.40;;;;;;;17.52;58.45;97850.81;5018711;28;20141;-72
2021/10/03 00:37:19;;;;;;;4.82;2.42;;;;;;;17.57;58.63;97863.69;5013221;28;20060;-72
2021/10/03 00:39:45;;;;;;;4.63;2.20;;;;;;;17.52;58.90;97858.22;5026546;28;20025;-71
2021/10/03 00:42:10;;;;;;;3.20;2.35;;;;;;;17.38;59.27;97857.09;5031882;28;20502;-71
2021/10/03 00:44:36;;;;;;;3.17;2.00;;;;;;;17.41;58.89;97862.84;5032300;28;20045;-72
2021/10/03 00:47:01;;;;;;;3.90;2.30;;;;;;;17.38;58.71;97854.38;5029131;28;20026;-72
2021/10/03 00:49:33;;;;;;;7.60;2.42;;;;;;;17.60;58.66;97854.94;5022652;28;20152;-71
2021/10/03 00:51:58;;;;;;;3.67;2.33;;;;;;;17.48;58.93;97863.41;5029518;28;20029;-71
2021/10/03 00:54:24;;;;;;;4.80;2.00;;;;;;;17.37;58.73;97823.47;5031369;28;20479;-71
2021/10/03 00:56:49;;;;;;;3.67;2.60;;;;;;;17.44;58.97;97854.09;5027820;28;20020;-72
2021/10/03 00:59:15;;;;;;;5.28;2.30;;;;;;;17.28;59.34;97845.03;5028538;28;20029;-71
2021/10/03 01:01:40;;;;;;;4.63;2.70;;;;;;;17.31;58.97;97841.75;5031649;28;20391;-72
2021/10/03 01:04:05;;;;;;;3.78;2.10;;;;;;;17.31;59.12;97852.69;5028585;28;20014;-72
2021/10/03 01:06:31;;;;;;;3.85;2.40;;;;;;;17.31;58.55;97839.03;5025169;28;20025;-71
2021/10/03 01:08:56;;;;;;;3.05;2.20;;;;;;;17.33;58.70;97844.25;5029677;28;20063;-71
2021/10/03 01:11:21;;;;;;;3.25;1.88;;;;;;;17.39;58.50;97836.84;5030540;28;20101;-71
2021/10/03 01:13:48;;;;;;;4.38;2.10;;;;;;;17.30;57.98;97829.19;5032139;28;20033;-71
2021/10/03 01:16:14;;;;;;;6.30;2.38;;;;;;;17.33;57.79;97822.38;5027841;28;20033;-71
2021/10/03 01:18:40;;;;;;;3.28;2.13;;;;;;;17.40;56.76;97811.19;5031140;28;20072;-71
2021/10/03 01:21:07;;;;;;;2.72;1.98;;;;;;;17.58;56.08;97832.53;5028905;28;20028;-71
2021/10/03 01:23:33;;;;;;;4.65;2.25;;;;;;;17.64;55.99;97834.16;5032031;28;20116;-72
2021/10/03 01:25:58;;;;;;;4.63;2.20;;;;;;;17.64;54.98;97812.28;5028439;28;20030;-71
2021/10/03 01:28:24;;;;;;;4.05;1.85;;;;;;;17.72;55.05;97825.41;5021968;28;20075;-71
2021/10/03 01:30:52;;;;;;;3.33;1.95;;;;;;;17.71;55.67;97818.31;5030954;28;20087;-72
2021/10/03 01:33:18;;;;;;;4.45;2.08;;;;;;;17.60;56.59;97811.16;5031486;28;20057;-72
2021/10/03 01:35:45;;;;;;;4.13;1.90;;;;;;;17.53;56.89;97808.72;5031426;28;20025;-71
2021/10/03 01:38:14;;;;;;;2.53;1.85;;;;;;;17.39;57.61;97809.50;5029502;28;20025;-71
2021/10/03 01:40:41;;;;;;;2.95;1.98;;;;;;;17.30;57.45;97798.31;5030835;28;20460;-72
2021/10/03 01:43:06;;;;;;;4.75;2.20;;;;;;;17.41;57.21;97789.00;5031863;28;20083;-71
2021/10/03 01:45:32;;;;;;;2.92;1.77;;;;;;;17.45;56.00;97792.03;5030917;28;20026;-71
2021/10/03 01:48:00;;;;;;;5.03;2.22;;;;;;;17.46;56.04;97786.28;5031945;28;20031;-71
2021/10/03 01:50:25;;;;;;;4.30;2.08;;;;;;;17.46;55.97;97782.72;5031170;28;20401;-72
2021/10/03 01:52:50;;;;;;;3.80;2.10;;;;;;;17.45;56.07;97772.91;5032037;28;20025;-72
2021/10/03 01:55:16;;;;;;;2.92;1.83;;;;;;;17.40;56.24;97767.44;5030381;28;20029;-71
2021/10/03 01:57:41;;;;;;;7.97;2.20;;;;;;;17.31;56.34;97762.47;5030959;28;20026;-72
2021/10/03 02:00:07;;;;;;;6.50;2.05;;;;;;;17.36;56.46;97758.13;5029785;28;20045;-71
2021/10/03 02:02:33;;;;;;;2.22;1.55;;;;;;;17.35;56.13;97764.69;5031471;28;20039;-71
2021/10/03 02:04:58;;;;;;;2.80;1.98;;;;;;;17.34;55.96;97754.84;5034618;28;20021;-71
2021/10/03 02:07:23;;;;;;;2.70;1.75;;;;;;;17.58;54.02;97752.34;5034893;28;20510;-72
2021/10/03 02:09:49;;;;;;;3.08;1.98;;;;;;;17.70;53.42;97750.97;5034965;28;20109;-71
2021/10/03 02:12:14;;;;;;;5.18;2.00;;;;;;;17.79;52.69;97740.34;5030895;28;20049;-72
2021/10/03 02:14:39;;;;;;;2.33;1.85;;;;;;;17.88;52.74;97741.41;5035807;28;20033;-71
2021/10/03 02:17:06;;;;;;;2.45;1.73;;;;;;;17.81;53.35;97759.22;5040559;28;20474;-71
2021/10/03 02:19:31;;;;;;;3.33;1.95;;;;;;;17.68;54.40;97739.53;5038869;28;20100;-72
2021/10/03 02:22:00;;;;;;;2.38;1.85;;;;;;;17.63;54.32;97753.22;5030784;28;20574;-72
2021/10/03 02:24:25;;;;;;;4.65;2.10;;;;;;;17.52;53.97;97735.13;5041353;28;20045;-71
2021/10/03 02:26:50;;;;;;;4.32;1.92;;;;;;;17.63;54.05;97755.94;5052723;28;20025;-71
2021/10/03 02:29:16;;;;;;;4.32;2.20;;;;;;;17.48;54.68;97737.63;5052118;28;20026;-72
2021/10/03 02:31:42;;;;;;;2.70;1.90;;;;;;;17.60;53.34;97739.25;5050695;28;20029;-71
2021/10/03 02:34:08;;;;;;;3.67;1.80;;;;;;;17.57;52.80;97728.84;5034722;28;20022;-72
2021/10/03 02:36:33;;;;;;;2.30;1.73;;;;;;;17.67;53.31;97748.81;5050289;28;20056;-71
2021/10/03 02:38:59;;;;;;;5.53;1.95;;;;;;;17.65;53.18;97747.44;5046474;28;20021;-71
2021/10/03 02:41:24;;;;;;;3.20;1.60;;;;;;;17.63;53.36;97745.00;5035671;28;20037;-71
2021/10/03 02:43:53;;;;;;;2.78;1.90;;;;;;;17.58;53.07;97744.16;5035382;28;20017;-71
2021/10/03 02:46:21;;;;;;;3.22;1.95;;;;;;;17.40;54.16;97719.03;5032853;28;20049;-71
2021/10/03 02:48:51;;;;;;;3.30;2.17;;;;;;;17.28;55.06;97732.97;5033751;28;20508;-71
2021/10/03 02:51:21;;;;;;;4.45;2.10;;;;;;;17.09;55.83;97721.75;5034393;28;20029;-71
2021/10/03 02:53:47;;;;;;;3.15;1.77;;;;;;;17.06;56.59;97725.03;5034288;28;20541;-72
2021/10/03 02:56:14;;;;;;;3.17;2.10;;;;;;;16.96;56.93;97729.66;5034928;28;20083;-71
2021/10/03 02:58:40;;;;;;;3.22;2.10;;;;;;;16.90;57.31;97711.59;5036037;28;20029;-72
2021/10/03 03:01:05;;;;;;;2.38;1.73;;;;;;;16.83;56.47;97700.97;5033657;28;20118;-71
2021/10/03 03:03:30;;;;;;;3.00;2.00;;;;;;;16.88;56.85;97700.97;5025918;28;20048;-72
2021/10/03 03:05:56;;;;;;;3.35;1.92;;;;;;;16.92;56.64;97699.31;5021798;28;20034;-71
2021/10/03 03:08:21;;;;;;;2.55;2.00;;;;;;;16.97;56.39;97709.44;5033026;28;20038;-72
2021/10/03 03:10:46;;;;;;;2.58;1.80;;;;;;;16.95;57.04;97703.41;5032711;28;20033;-72
2021/10/03 03:13:12;;;;;;;3.22;2.33;;;;;;;16.91;56.99;97710.53;5034301;28;20391;-71
2021/10/03 03:15:37;;;;;;;2.47;1.83;;;;;;;16.95;56.09;97706.16;5032295;28;20064;-72
2021/10/03 03:18:03;;;;;;;3.60;1.92;;;;;;;16.81;56.41;97684.81;5034552;28;20021;-72
2021/10/03 03:20:28;;;;;;;3.30;1.77;;;;;;;16.90;56.60;97708.88;5031882;28;20025;-71
2021/10/03 03:22:54;;;;;;;6.10;2.00;;;;;;;17.00;55.67;97703.41;5034335;28;20036;-72
2021/10/03 03:25:20;;;;;;;3.55;1.70;;;;;;;17.06;54.71;97703.16;5032254;28;20022;-71
2021/10/03 03:27:45;;;;;;;3.22;2.13;;;;;;;17.18;54.21;97702.06;5029949;28;20064;-71
2021/10/03 03:30:13;;;;;;;2.58;1.70;;;;;;;17.12;54.57;97689.50;5033210;28;20083;-71
2021/10/03 03:32:39;;;;;;;2.72;1.80;;;;;;;17.01;55.89;97703.16;5033920;28;20036;-71
2021/10/03 03:35:06;;;;;;;3.03;1.90;;;;;;;16.92;56.49;97693.84;5019703;28;20017;-72
2021/10/03 03:37:31;;;;;;;3.58;2.00;;;;;;;16.82;56.75;97691.09;5034121;28;20036;-72
2021/10/03 03:39:56;;;;;;;3.78;1.83;;;;;;;16.70;56.43;97680.41;5033061;28;20487;-72
2021/10/03 03:42:21;;;;;;;2.92;1.70;;;;;;;16.86;55.97;97689.47;5033968;28;20033;-72
2021/10/03 03:44:47;;;;;;;3.03;1.60;;;;;;;16.79;56.34;97678.84;5033770;28;20021;-72
2021/10/03 03:47:12;;;;;;;3.72;2.05;;;;;;;16.82;56.45;97691.09;5033377;28;20442;-73
2021/10/03 03:49:38;;;;;;;2.78;1.70;;;;;;;16.76;56.88;97692.97;5034010;28;20040;-72
2021/10/03 03:52:04;;;;;;;3.17;1.85;;;;;;;16.78;55.17;97688.09;5034545;28;20033;-73
2021/10/03 03:54:30;;;;;;;8.02;2.10;;;;;;;16.95;54.83;97682.41;5019201;28;20030;-72
2021/10/03 03:56:55;;;;;;;3.85;1.90;;;;;;;17.08;53.88;97681.00;5031860;28;20068;-73
2021/10/03 03:59:20;;;;;;;2.53;1.60;;;;;;;16.88;54.22;97650.97;5033861;28;20033;-72
2021/10/03 04:01:46;;;;;;;4.80;1.52;;;;;;;17.08;53.98;97683.75;5033504;28;20117;-72
2021/10/03 04:04:11;;;;;;;4.95;2.15;;;;;;;17.01;54.58;97680.50;5029149;28;20392;-73
2021/10/03 04:06:36;;;;;;;3.13;1.75;;;;;;;16.92;54.76;97662.97;5025594;28;20036;-73
2021/10/03 04:09:02;;;;;;;2.97;1.80;;;;;;;17.01;54.25;97677.75;5030863;28;20029;-72
2021/10/03 04:11:27;;;;;;;2.55;1.65;;;;;;;17.01;54.16;97684.03;5033855;28;20037;-73
2021/10/03 04:13:53;;;;;;;2.35;1.50;;;;;;;16.99;54.26;97678.00;5034666;28;20108;-73
2021/10/03 04:16:18;;;;;;;2.97;1.95;;;;;;;17.04;54.18;97666.28;5041675;28;20118;-72
2021/10/03 04:18:43;;;;;;;2.97;1.70;;;;;;;16.93;54.70;97670.09;5047322;28;20033;-72
2021/10/03 04:21:08;;;;;;;6.57;2.00;;;;;;;16.83;55.18;97681.84;5043527;28;20036;-72
2021/10/03 04:23:34;;;;;;;2.97;1.60;;;;;;;16.80;55.17;97669.53;5047918;28;20053;-72
2021/10/03 04:25:59;;;;;;;3.50;2.13;;;;;;;16.66;55.70;97665.66;5045675;28;20025;-72
2021/10/03 04:28:25;;;;;;;2.58;1.83;;;;;;;16.64;56.20;97678.78;5047891;28;20112;-72
2021/10/03 04:30:54;;;;;;;2.85;1.70;;;;;;;16.58;56.26;97663.44;5047805;28;20036;-72
2021/10/03 04:33:19;;;;;;;2.83;2.00;;;;;;;16.66;55.71;97643.81;5046047;28;20616;-72
2021/10/03 04:35:45;;;;;;;3.67;1.90;;;;;;;16.70;55.71;97669.50;5047862;28;20025;-72
2021/10/03 04:38:10;;;;;;;2.22;1.55;;;;;;;16.60;56.50;97669.47;5046300;28;20060;-73
2021/10/03 04:40:36;;;;;;;3.28;2.00;;;;;;;16.63;56.58;97660.72;5047227;28;20029;-72
2021/10/03 04:43:01;;;;;;;2.88;1.80;;;;;;;16.48;57.46;97660.69;5046196;28;20045;-72
2021/10/03 04:45:26;;;;;;;4.57;2.05;;;;;;;16.59;57.04;97651.47;5045500;28;20021;-72
2021/10/03 04:47:52;;;;;;;2.90;2.03;;;;;;;16.49;57.28;97659.63;5045366;28;20034;-72
2021/10/03 04:50:17;;;;;;;2.83;1.80;;;;;;;16.49;57.11;97657.72;5040479;28;20053;-73
2021/10/03 04:52:43;;;;;;;7.82;2.20;;;;;;;16.52;56.80;97648.16;5029980;28;20057;-72
2021/10/03 04:55:10;;;;;;;3.50;2.10;;;;;;;16.57;56.76;97643.53;5033234;28;20028;-72
2021/10/03 04:57:36;;;;;;;2.92;1.92;;;;;;;16.55;56.61;97650.34;5032615;28;20029;-72
2021/10/03 05:00:03;;;;;;;2.30;1.65;;;;;;;16.63;55.76;97636.16;5033032;28;20107;-72
2021/10/03 05:02:30;;;;;;;3.45;2.10;;;;;;;16.74;54.70;97645.19;5031782;28;20069;-72
2021/10/03 05:04:55;;;;;;;7.35;2.03;;;;;;;16.73;54.82;97644.34;5027895;28;20061;-72
2021/10/03 05:07:20;;;;;;;3.13;1.85;;;;;;;16.70;55.78;97647.66;5030353;28;20022;-72
2021/10/03 05:09:46;;;;;;;8.18;1.90;;;;;;;16.73;56.02;97649.00;5031911;28;20386;-72
2021/10/03 05:12:11;;;;;;;2.47;1.70;;;;;;;16.80;55.57;97657.78;5032517;28;20017;-73
2021/10/03 05:14:36;;;;;;;3.97;2.10;;;;;;;16.79;55.38;97640.59;5031443;28;20033;-73
2021/10/03 05:17:02;;;;;;;2.50;1.65;;;;;;;16.81;55.53;97652.03;5033414;28;20021;-72
2021/10/03 05:19:27;;;;;;;3.30;1.80;;;;;;;16.86;55.27;97648.50;5032122;28;20030;-73
2021/10/03 05:21:52;;;;;;;2.42;1.70;;;;;;;17.03;53.47;97627.22;5032985;28;20025;-72
2021/10/03 05:24:18;;;;;;;2.92;1.88;;;;;;;17.28;52.48;97629.06;5033000;28;20031;-71
2021/10/03 05:26:43;;;;;;;2.60;1.70;;;;;;;17.49;51.16;97631.78;5032692;28;20446;-72
2021/10/03 05:29:08;;;;;;;2.55;1.73;;;;;;;17.60;50.58;97629.84;5029640;28;20622;-74
2021/10/03 05:31:34;;;;;;;5.32;1.83;;;;;;;17.59;51.74;97642.69;5029414;28;20021;-69
2021/10/03 05:33:59;;;;;;;3.72;1.67;;;;;;;17.59;51.27;97637.22;5032337;28;20036;-69
2021/10/03 05:36:25;;;;;;;3.92;1.70;;;;;;;17.29;51.94;97592.47;5032214;28;20058;-73
2021/10/03 05:38:51;;;;;;;4.95;1.90;;;;;;;17.52;53.25;97645.72;5035500;28;20052;-72
2021/10/03 05:41:16;;;;;;;2.00;1.52;;;;;;;17.24;53.69;97628.00;5040168;28;20033;-74
2021/10/03 05:43:42;;;;;;;2.83;1.65;;;;;;;17.25;54.24;97656.16;5040933;28;20056;-71
2021/10/03 05:46:08;;;;;;;2.72;1.77;;;;;;;17.22;54.46;97663.00;5038454;28;20083;-70
2021/10/03 05:48:34;;;;;;;2.42;1.80;;;;;;;17.01;53.79;97615.72;5037796;28;20445;-71
2021/10/03 05:51:00;;;;;;;2.65;1.67;;;;;;;17.15;54.48;97648.78;5039169;28;20048;-70
2021/10/03 05:53:25;;;;;;;3.15;2.08;;;;;;;17.18;54.11;97656.41;5036760;28;20139;-70
2021/10/03 05:55:50;;;;;;;4.88;1.75;;;;;;;17.27;53.28;97660.25;5039001;28;20510;-70
2021/10/03 05:58:16;;;;;;;2.40;1.63;;;;;;;17.29;54.22;97659.97;5037181;28;20040;-72
2021/10/03 06:00:41;;;;;;;3.85;2.15;;;;;;;17.16;55.52;97649.59;5035938;28;20059;-72
2021/10/03 06:03:07;;;;;;;3.60;1.98;;;;;;;17.01;57.02;97666.81;5039216;28;20057;-70
2021/10/03 06:05:32;;;;;;;4.43;1.98;;;;;;;17.04;55.65;97647.16;5037902;28;20092;-72
2021/10/03 06:07:57;;;;;;;3.45;2.08;;;;;;;17.08;56.40;97661.88;5037948;28;20025;-71
2021/10/03 06:10:24;;;;;;;4.85;2.20;;;;;;;17.05;55.74;97660.53;5038933;28;20055;-73
2021/10/03 06:12:50;;;;;;;4.00;1.92;;;;;;;16.96;56.05;97647.69;5039637;28;20026;-72
2021/10/03 06:15:15;;;;;;;2.88;1.90;;;;;;;16.95;55.54;97637.84;5039344;28;20076;-72
2021/10/03 06:17:40;;;;;;;3.17;1.80;;;;;;;16.91;56.99;97643.03;5037800;28;20116;-71
2021/10/03 06:20:06;;;;;;;4.00;1.98;;;;;;;16.96;56.44;97644.97;5042484;28;20064;-69
2021/10/03 06:22:32;;;;;;;6.00;2.22;;;;;;;17.11;56.04;97639.50;5035656;28;20030;-73
2021/10/03 06:24:57;;;;;;;3.35;2.15;;;;;;;17.17;55.35;97635.66;5031034;28;20028;-72
2021/10/03 06:27:22;;;;;;;2.47;1.60;;;;;;;17.28;54.45;97650.13;5028449;28;20542;-71
2021/10/03 06:29:48;;;;;;;2.42;1.67;;;;;;;17.29;54.07;97647.13;5037868;28;20037;-73
2021/10/03 06:32:13;;;;;;;3.92;2.00;;;;;;;17.45;54.63;97642.47;5030338;28;20036;-73
2021/10/03 06:34:38;;;;;;;2.33;1.30;;;;;;;17.63;52.56;97638.31;5036998;28;20029;-72
2021/10/03 06:37:04;;;;;;;4.40;1.77;;;;;;;17.78;51.98;97640.19;5034791;28;20514;-74
2021/10/03 06:39:29;;;;;;;3.00;2.00;;;;;;;18.05;51.38;97642.59;5034018;28;20087;-74
2021/10/03 06:41:54;;;;;;;3.00;1.70;;;;;;;18.14;50.80;97640.88;5038185;28;20430;-73
2021/10/03 06:44:20;;;;;;;2.58;1.67;;;;;;;18.40;48.79;97668.16;5039965;28;20047;-70
2021/10/03 06:46:46;;;;;;;1.75;1.42;;;;;;;18.39;50.65;97667.34;5025755;28;20084;-70
2021/10/03 06:49:11;;;;;;;3.75;1.58;;;;;;;18.45;50.29;97654.44;5031023;28;20626;-70
2021/10/03 06:51:37;;;;;;;3.80;1.80;;;;;;;18.41;50.34;97645.13;5034711;28;20033;-71
2021/10/03 06:54:03;;;;;;;4.22;2.15;;;;;;;18.52;50.23;97646.72;5024710;28;20513;-70
2021/10/03 06:56:29;;;;;;;3.35;1.77;;;;;;;18.49;50.32;97641.78;5034239;28;20084;-70
2021/10/03 06:58:55;;;;;;;3.25;1.65;;;;;;;18.61;48.94;97649.69;5030284;28;20033;-74
2021/10/03 07:01:20;;;;;;;2.28;1.70;;;;;;;18.78;48.61;97646.56;5024067;28;20555;-73
2021/10/03 07:03:45;;;;;;;1.90;1.30;;;;;;;18.96;48.36;97665.06;5032098;28;20017;-75
2021/10/03 07:06:11;;;;;;;2.67;1.30;;;;;;;19.10;48.48;97650.72;5032772;28;21880;-73
2021/10/03 07:08:36;;;;;;;1.70;1.25;;;;;;;19.15;47.49;97643.28;5033349;28;20124;-73
2021/10/03 07:11:03;;;;;;;3.35;1.40;;;;;;;19.33;46.83;97654.63;5032500;28;20036;-71
2021/10/03 07:13:29;;;;;;;3.33;1.55;;;;;;;19.47;47.04;97655.59;5022681;28;20049;-69
2021/10/03 07:15:54;;;;;;;3.42;1.70;;;;;;;19.55;46.73;97674.19;5034504;28;20053;-70
2021/10/03 07:18:21;;;;;;;3.17;1.67;;;;;;;19.59;46.56;97679.88;5036214;28;20025;-71
2021/10/03 07:20:47;;;;;;;2.85;1.70;;;;;;;19.42;47.49;97674.84;5035578;28;20548;-71
2021/10/03 07:23:12;;;;;;;2.53;1.63;;;;;;;19.45;47.84;97669.59;5035956;28;20029;-70
2021/10/03 07:25:38;;;;;;;2.28;1.63;;;;;;;19.28;48.34;97674.69;5033493;28;20025;-73
2021/10/03 07:28:03;;;;;;;2.40;1.42;;;;;;;19.23;48.48;97674.72;5033628;28;20485;-71
2021/10/03 07:30:29;;;;;;;2.00;1.48;;;;;;;19.19;48.58;97677.22;5035404;28;20530;-71
2021/10/03 07:32:54;;;;;;;2.33;1.50;;;;;;;19.28;48.22;97677.41;5040366;28;20090;-71
2021/10/03 07:35:19;;;;;;;2.47;1.60;;;;;;;19.30;48.02;97664.25;5034564;28;20078;-72
2021/10/03 07:37:45;;;;;;;4.22;1.50;;;;;;;19.40;47.77;97677.88;5039940;28;20092;-70
2021/10/03 07:40:11;;;;;;;1.77;1.27;;;;;;;19.42;47.68;97672.09;5038117;28;20026;-72
2021/10/03 07:42:37;;;;;;;2.15;1.40;;;;;;;19.44;47.53;97676.19;5048612;28;20040;-71
2021/10/03 07:45:11;;;;;;;2.47;1.50;;;;;;;19.51;47.27;97677.78;5048203;28;20398;-72
2021/10/03 07:47:36;;;;;;;1.75;1.30;;;;;;;19.48;47.38;97669.00;5047012;28;20775;-70
2021/10/03 07:50:02;;;;;;;2.30;1.30;;;;;;;19.56;47.46;97680.47;5048495;28;20032;-71
2021/10/03 07:52:27;;;;;;;3.30;1.55;;;;;;;19.46;47.64;97671.22;5047458;28;20108;-73
2021/10/03 07:54:53;;;;;;;3.53;1.35;;;;;;;19.55;47.47;97673.34;5041902;28;20021;-73
2021/10/03 07:57:19;;;;;;;2.10;1.38;;;;;;;19.55;47.14;97665.13;5042310;28;20033;-72
2021/10/03 07:59:45;;;;;;;2.33;1.38;;;;;;;19.61;46.97;97672.19;5033182;28;20101;-72
2021/10/03 08:02:10;;;;;;;1.70;1.10;;;;;;;19.74;46.77;97679.78;5034903;28;20053;-72
2021/10/03 08:04:35;;;;;;;2.55;1.60;;;;;;;19.72;46.42;97660.03;5027960;28;20055;-72
2021/10/03 08:07:01;;;;;;;2.35;1.40;;;;;;;19.84;47.04;97670.63;5034411;28;20025;-73
2021/10/03 08:09:26;;;;;;;1.90;1.20;;;;;;;19.84;46.68;97676.91;5033715;28;20056;-71
2021/10/03 08:11:54;;;;;;;4.15;1.60;;;;;;;19.86;47.13;97673.91;5034954;28;20029;-70
2021/10/03 08:14:19;;;;;;;2.05;1.33;;;;;;;19.90;47.52;97670.25;5035530;28;20483;-71
2021/10/03 08:16:44;;;;;;;2.40;1.55;;;;;;;19.91;48.11;97688.38;5032850;28;20119;-72
2021/10/03 08:19:10;;;;;;;2.70;1.65;;;;;;;19.87;48.83;97681.00;5028510;28;20048;-70
2021/10/03 08:21:35;;;;;;;2.17;1.52;;;;;;;19.70;49.30;97678.69;5041673;28;20499;-72
2021/10/03 08:24:00;;;;;;;5.53;1.50;;;;;;;19.58;48.97;97681.00;5036243;28;20021;-71
2021/10/03 08:26:25;;;;;;;2.45;1.30;;;;;;;19.56;49.36;97672.25;5037958;28;20045;-72
2021/10/03 08:28:51;;;;;;;2.83;1.45;;;;;;;19.58;48.82;97670.03;5045759;28;20041;-73
2021/10/03 08:31:16;;;;;;;3.58;1.38;;;;;;;19.57;48.76;97674.72;5045467;28;20215;-75
2021/10/03 08:33:43;;;;;;;2.40;1.70;;;;;;;19.54;48.80;97660.72;5038839;28;20030;-74
2021/10/03 08:36:08;;;;;;;2.20;1.42;;;;;;;19.59;48.29;97680.69;5043780;28;20468;-73
2021/10/03 08:38:34;;;;;;;1.90;1.30;;;;;;;19.54;49.05;97674.44;5032873;28;20041;-68
2021/10/03 08:41:03;;;;;;;2.42;1.60;;;;;;;19.61;49.21;97674.94;5035560;28;20544;-74
2021/10/03 08:43:29;;;;;;;2.92;1.80;;;;;;;19.64;48.45;97679.84;5043934;28;20013;-75
2021/10/03 08:45:57;;;;;;;2.30;1.52;;;;;;;19.53;48.96;97681.88;5043233;28;20113;-76
2021/10/03 08:48:23;;;;;;;3.63;1.63;;;;;;;19.61;49.07;97689.47;5045854;28;20036;-75
2021/10/03 08:50:49;;;;;;;2.17;1.50;;;;;;;19.57;49.39;97671.97;5048036;28;20025;-74
2021/10/03 08:53:15;;;;;;;2.17;1.38;;;;;;;19.52;49.37;97669.28;5044993;28;20053;-73
2021/10/03 08:55:41;;;;;;;2.25;1.40;;;;;;;19.69;48.63;97677.88;5046530;28;20208;-74
2021/10/03 08:58:07;;;;;;;2.30;1.58;;;;;;;19.72;48.91;97684.72;5042227;28;20262;-72
2021/10/03 09:00:32;;;;;;;3.00;1.50;;;;;;;19.70;48.96;97673.22;5047056;28;20022;-71
2021/10/03 09:03:08;;;;;;;2.70;1.35;;;;;;;19.78;48.07;97660.78;5047384;28;20021;-75
2021/10/03 09:05:45;;;;;;;5.10;1.30;;;;;;;19.96;47.06;97648.22;5041200;28;20021;-71
2021/10/03 09:08:15;;;;;;;2.50;1.55;;;;;;;20.11;47.01;97694.72;5035081;28;20036;-73
2021/10/03 09:10:49;;;;;;;;;;;;;;;19.98;49.12;97681.72;5047305;28;20056;-71
2021/10/03 09:13:16;;;;;;;3.70;1.25;;;;;;;19.65;49.92;97706.19;5042274;28;19908;-71
2021/10/03 09:15:42;;;;;;;3.42;1.67;;;;;;;19.56;50.22;97703.22;5046772;28;20131;-70
2021/10/03 09:18:07;;;;;;;2.03;1.50;;;;;;;19.49;50.31;97689.88;5039012;28;20021;-73
2021/10/03 09:20:33;;;;;;;1.73;1.30;;;;;;;19.54;50.81;97688.16;5031270;28;20026;-71
2021/10/03 09:23:11;;;;;;;4.65;1.92;;;;;;;19.40;51.88;97680.63;5025637;28;20025;-71
2021/10/03 09:25:49;;;;;;;2.70;1.70;;;;;;;19.24;53.02;97679.94;5029777;28;20072;-70
2021/10/03 09:28:30;;;;;;;2.50;1.73;;;;;;;19.01;54.06;97692.44;5021751;28;20018;-71
2021/10/03 09:31:11;;;;;;;3.00;1.90;;;;;;;18.83;55.44;97704.09;5025264;28;20029;-70
2021/10/03 09:33:58;;;;;;;2.40;1.70;;;;;;;18.87;55.96;97705.16;5022960;28;20044;-71
2021/10/03 09:36:32;;;;;;;3.38;1.70;;;;;;;18.64;56.87;97694.88;5026953;28;20799;-71
2021/10/03 09:39:01;;;;;;;2.30;1.60;;;;;;;18.52;57.77;97700.66;5027327;28;20049;-73
2021/10/03 09:41:29;;;;;;;2.80;1.98;;;;;;;18.42;58.06;97690.59;5023992;28;20026;-71
2021/10/03 09:43:58;;;;;;;3.30;1.90;;;;;;;18.38;58.90;97695.81;5022811;28;20041;-73
2021/10/03 09:46:34;;;;;;;3.78;1.98;;;;;;;18.39;59.40;97696.63;5023398;28;20072;-73
2021/10/03 09:49:01;;;;;;;3.08;2.00;;;;;;;18.37;59.26;97696.09;5027611;28;20021;-69
2021/10/03 09:51:27;;;;;;;3.58;2.30;;;;;;;18.43;59.79;97699.63;5039593;28;20028;-73
2021/10/03 09:53:52;;;;;;;5.88;2.00;;;;;;;18.32;59.35;97682.44;5041560;28;20025;-70
2021/10/03 09:56:18;;;;;;;2.55;1.80;;;;;;;18.46;58.76;97701.81;5043546;28;20022;-71
2021/10/03 09:58:46;;;;;;;4.32;2.13;;;;;;;18.51;59.15;97705.34;5043441;28;20022;-70
2021/10/03 10:01:12;;;;;;;2.92;2.10;;;;;;;18.78;54.90;97688.47;5044862;28;20033;-71
2021/10/03 10:03:37;;;;;;;2.25;1.50;;;;;;;18.96;54.71;97688.91;5040978;28;20030;-71
2021/10/03 10:06:03;;;;;;;3.83;1.90;;;;;;;19.05;55.31;97696.25;5044015;28;21909;-70
2021/10/03 10:08:31;;;;;;;5.00;1.90;;;;;;;19.24;54.13;97695.56;5026514;28;20329;-70
2021/10/03 10:11:08;;;;;;;4.10;1.80;;;;;;;19.25;54.42;97695.25;5036347;28;20033;-71
2021/10/03 10:13:35;;;;;;;3.47;1.95;;;;;;;19.30;53.64;97693.59;5031914;28;20048;-70
2021/10/03 10:16:41;;;;;;;3.67;1.60;;;;;;;19.27;55.37;97701.28;5046460;28;20029;-70
2021/10/03 10:19:42;;;;;;;3.50;2.30;;;;;;;19.19;56.29;97703.84;5035277;28;20068;-70
2021/10/03 10:22:16;;;;;;;3.08;1.65;;;;;;;19.17;57.40;97704.09;5018998;28;20111;-70
2021/10/03 10:24:47;;;;;;;2.90;1.90;;;;;;;19.09;55.77;97706.66;5041102;28;20022;-70
2021/10/03 10:27:18;;;;;;;2.33;1.60;;;;;;;19.27;55.17;97695.81;5048712;28;20021;-70
2021/10/03 10:29:50;;;;;;;2.47;1.40;;;;;;;19.32;55.07;97688.66;5049765;28;20041;-70
2021/10/03 10:32:16;;;;;;;3.58;1.80;;;;;;;19.08;54.90;97683.91;5049010;28;20041;-69
2021/10/03 10:35:07;;;;;;;3.20;1.80;;;;;;;19.31;54.95;97687.84;5050444;28;20025;-69
2021/10/03 10:37:51;;;;;;;3.13;1.60;;;;;;;19.45;54.83;97686.06;5060847;28;20097;-70
2021/10/03 10:40:22;;;;;;;2.65;1.60;;;;;;;19.58;55.42;97683.75;5045314;28;20045;-70
2021/10/03 10:43:03;;;;;;;4.22;1.83;;;;;;;19.63;55.29;97683.69;5040328;28;20034;-70
2021/10/03 10:45:35;;;;;;;3.63;2.10;;;;;;;19.67;54.17;97682.03;5039251;28;20025;-70
2021/10/03 10:48:06;;;;;;;3.13;1.90;;;;;;;19.81;54.13;97680.25;5037942;28;20589;-70
2021/10/03 10:50:53;;;;;;;5.78;2.10;;;;;;;20.00;53.81;97674.00;5037481;28;20035;-70
2021/10/03 10:53:22;;;;;;;3.97;1.85;;;;;;;20.04;53.88;97675.88;5031341;28;20060;-71
2021/10/03 10:56:02;;;;;;;7.25;2.22;;;;;;;20.19;53.26;97677.59;5037557;28;20036;-70
2021/10/03 10:58:28;;;;;;;2.45;1.50;;;;;;;20.47;52.24;97677.81;5038686;28;20051;-71
2021/10/03 11:00:58;;;;;;;3.60;1.90;;;;;;;20.45;52.45;97685.53;5031233;28;20127;-70
2021/10/03 11:03:52;;;;;;;3.28;1.90;;;;;;;20.13;54.16;97689.78;5042805;28;20033;-70
2021/10/03 11:06:21;;;;;;;2.50;1.52;;;;;;;20.18;54.70;97686.16;5030193;28;20483;-70
2021/10/03 11:08:58;;;;;;;4.60;2.13;;;;;;;20.08;57.37;97682.41;5030819;28;20029;-71
2021/10/03 11:11:31;;;;;;;5.18;1.80;;;;;;;20.03;57.19;97679.72;5030290;28;20095;-70
2021/10/03 11:14:21;;;;;;;4.15;1.77;;;;;;;19.99;55.42;97669.59;5032008;28;20053;-71
2021/10/03 11:17:02;;;;;;;3.63;2.15;;;;;;;20.01;55.34;97668.19;5029263;28;20037;-71
2021/10/03 11:19:41;;;;;;;3.22;1.67;;;;;;;20.11;55.31;97665.34;5031438;28;20037;-71
2021/10/03 11:22:22;;;;;;;6.10;2.60;;;;;;;20.11;55.31;97673.56;5031224;28;20036;-71
2021/10/03 11:24:54;;;;;;;5.30;2.90;;;;;;;20.09;54.02;97651.06;5029478;28;20040;-70
2021/10/03 11:27:30;;;;;;;4.93;2.47;;;;;;;20.18;53.35;97675.97;5045587;28;20032;-71
2021/10/03 11:29:57;;;;;;;3.63;1.98;;;;;;;20.15;53.77;97665.59;5031317;28;20021;-71
2021/10/03 11:32:24;;;;;;;4.43;1.90;;;;;;;20.16;54.70;97677.38;5029872;28;20091;-71
2021/10/03 11:34:51;;;;;;;3.65;2.08;;;;;;;20.11;54.75;97670.84;5032432;28;20075;-71